createdAt,value
2018-09-17T00:00:54.169Z,70.56
2018-09-17T00:01:54.397Z,69.58
2018-09-17T00:02:54.625Z,70.80
2018-09-17T00:03:54.852Z,71.04
2018-09-17T00:04:55.080Z,75.68
2018-09-17T00:05:55.301Z,75.93
2018-09-17T00:06:55.528Z,71.53
2018-09-17T00:07:55.757Z,68.12
2018-09-17T00:08:55.984Z,71.29
2018-09-17T00:09:56.212Z,71.04
2018-09-17T00:10:56.439Z,70.80
2018-09-17T00:11:56.666Z,73.97
2018-09-17T00:12:56.895Z,68.85
2018-09-17T00:13:57.121Z,73.24
2018-09-17T00:14:57.346Z,67.87
2018-09-17T00:15:57.575Z,70.07
2018-09-17T00:16:57.801Z,68.85
2018-09-17T00:17:58.026Z,75.44
2018-09-17T00:18:58.255Z,70.80
2018-09-17T00:19:58.482Z,68.12
2018-09-17T00:20:58.708Z,68.12
2018-09-17T00:21:58.934Z,70.31
2018-09-17T00:22:59.163Z,66.65
2018-09-17T00:23:59.391Z,69.58
2018-09-17T00:24:59.615Z,72.51
2018-09-17T00:25:59.845Z,66.41
2018-09-17T00:27:00.068Z,69.58
2018-09-17T00:28:00.293Z,72.51
2018-09-17T00:29:00.524Z,73.73
2018-09-17T00:30:00.751Z,71.53
2018-09-17T00:31:00.979Z,70.80
2018-09-17T00:32:01.206Z,71.04
2018-09-17T00:33:01.432Z,69.34
2018-09-17T00:34:01.661Z,73.97
2018-09-17T00:35:01.888Z,69.34
2018-09-17T00:36:02.112Z,67.87
2018-09-17T00:37:02.338Z,69.82
2018-09-17T00:38:02.566Z,65.43
2018-09-17T00:39:02.789Z,66.16
2018-09-17T00:40:03.020Z,67.38
2018-09-17T00:41:03.243Z,68.12
2018-09-17T00:42:03.472Z,71.53
2018-09-17T00:43:03.696Z,66.89
2018-09-17T00:44:03.920Z,67.63
2018-09-17T00:45:04.150Z,67.38
2018-09-17T00:46:04.376Z,68.60
2018-09-17T00:47:04.607Z,68.36
2018-09-17T00:48:04.828Z,67.87
2018-09-17T00:49:05.056Z,68.85
2018-09-17T00:50:05.282Z,68.36
2018-09-17T00:51:05.509Z,74.22
2018-09-17T00:52:05.737Z,70.31
2018-09-17T00:53:05.967Z,76.66
2018-09-17T00:54:06.192Z,75.44
2018-09-17T00:55:06.418Z,68.85
2018-09-17T00:56:06.649Z,67.63
2018-09-17T00:57:06.890Z,70.07
2018-09-17T00:58:07.115Z,68.36
2018-09-17T00:59:07.344Z,69.58
2018-09-17T01:00:07.561Z,74.46
2018-09-17T01:01:07.789Z,71.53
2018-09-17T01:02:08.016Z,70.80
2018-09-17T01:03:08.248Z,71.29
2018-09-17T01:04:08.464Z,76.42
2018-09-17T01:05:08.691Z,74.22
2018-09-17T01:06:08.919Z,71.29
2018-09-17T01:07:09.149Z,71.29
2018-09-17T01:08:09.370Z,72.27
2018-09-17T01:09:09.599Z,72.02
2018-09-17T01:10:09.825Z,71.78
2018-09-17T01:11:10.052Z,72.51
2018-09-17T01:12:10.280Z,74.71
2018-09-17T01:13:10.511Z,72.27
2018-09-17T01:14:10.750Z,70.80
2018-09-17T01:15:10.971Z,80.57
2018-09-17T01:16:11.192Z,71.04
2018-09-17T01:17:11.425Z,75.68
2018-09-17T01:18:11.643Z,73.49
2018-09-17T01:19:11.870Z,74.22
2018-09-17T01:20:12.098Z,74.95
2018-09-17T01:21:12.324Z,72.02
2018-09-17T01:22:12.551Z,70.56
2018-09-17T01:23:12.778Z,73.00
2018-09-17T01:24:13.004Z,73.73
2018-09-17T01:25:13.229Z,76.66
2018-09-17T01:26:13.462Z,68.85
2018-09-17T01:27:13.684Z,77.64
2018-09-17T01:28:13.912Z,75.93
2018-09-17T01:29:14.140Z,67.38
2018-09-17T01:30:14.365Z,73.00
2018-09-17T01:31:14.592Z,72.27
2018-09-17T01:32:14.816Z,70.80
2018-09-17T01:33:15.045Z,77.15
2018-09-17T01:34:15.295Z,74.46
2018-09-17T01:35:15.494Z,67.87
2018-09-17T01:36:15.724Z,70.56
2018-09-17T01:37:15.947Z,74.22
2018-09-17T01:38:16.173Z,73.97
2018-09-17T01:39:16.399Z,73.73
2018-09-17T01:40:16.628Z,70.31
2018-09-17T01:41:16.847Z,70.80
2018-09-17T01:42:17.078Z,67.87
2018-09-17T01:43:17.304Z,69.82
2018-09-17T01:44:17.532Z,69.58
2018-09-17T01:45:17.761Z,70.56
2018-09-17T01:46:18.072Z,72.02
2018-09-17T01:47:18.213Z,70.56
2018-09-17T01:48:18.442Z,71.29
2018-09-17T01:49:18.664Z,77.15
2018-09-17T01:50:18.891Z,72.02
2018-09-17T01:51:19.121Z,72.27
2018-09-17T01:52:19.345Z,74.46
2018-09-17T01:53:19.573Z,74.71
2018-09-17T01:54:19.798Z,73.00
2018-09-17T01:55:20.026Z,71.29
2018-09-17T01:56:20.255Z,72.02
2018-09-17T01:57:20.481Z,72.51
2018-09-17T01:58:20.708Z,70.31
2018-09-17T01:59:20.935Z,70.31
2018-09-17T02:00:21.160Z,73.00
2018-09-17T02:01:21.385Z,71.78
2018-09-17T02:02:21.609Z,71.78
2018-09-17T02:03:21.837Z,72.27
2018-09-17T02:04:22.062Z,71.29
2018-09-17T02:05:22.312Z,69.82
2018-09-17T02:06:22.519Z,74.95
2018-09-17T02:07:22.752Z,73.73
2018-09-17T02:08:22.997Z,74.22
2018-09-17T02:09:23.223Z,69.09
2018-09-17T02:10:23.449Z,72.75
2018-09-17T02:11:23.675Z,74.46
2018-09-17T02:12:23.903Z,73.00
2018-09-17T02:13:24.133Z,77.15
2018-09-17T02:14:24.360Z,69.58
2018-09-17T02:15:24.585Z,72.51
2018-09-17T02:16:24.812Z,73.49
2018-09-17T02:17:25.041Z,70.80
2018-09-17T02:18:25.267Z,74.71
2018-09-17T02:19:25.501Z,71.53
2018-09-17T02:20:25.720Z,73.24
2018-09-17T02:21:25.950Z,72.27
2018-09-17T02:22:26.174Z,69.82
2018-09-17T02:23:26.401Z,70.07
2018-09-17T02:24:26.625Z,72.51
2018-09-17T02:25:26.853Z,68.36
2018-09-17T02:26:27.079Z,71.78
2018-09-17T02:27:27.307Z,73.49
2018-09-17T02:28:27.532Z,72.75
2018-09-17T02:29:27.762Z,71.78
2018-09-17T02:30:27.992Z,72.51
2018-09-17T02:31:28.215Z,73.49
2018-09-17T02:32:28.441Z,72.02
2018-09-17T02:33:28.668Z,68.85
2018-09-17T02:34:28.893Z,70.56
2018-09-17T02:35:29.115Z,68.36
2018-09-17T02:36:29.346Z,74.95
2018-09-17T02:37:29.572Z,72.75
2018-09-17T02:38:29.798Z,72.51
2018-09-17T02:39:30.029Z,72.51
2018-09-17T02:40:30.255Z,75.44
2018-09-17T02:41:30.478Z,76.17
2018-09-17T02:42:30.706Z,70.56
2018-09-17T02:43:30.932Z,71.78
2018-09-17T02:44:31.159Z,71.53
2018-09-17T02:45:31.387Z,71.29
2018-09-17T02:46:31.614Z,70.56
2018-09-17T02:47:31.841Z,71.29
2018-09-17T02:48:32.079Z,69.34
2018-09-17T02:49:32.293Z,70.56
2018-09-17T02:50:32.520Z,70.31
2018-09-17T02:51:32.747Z,71.04
2018-09-17T02:52:32.973Z,76.17
2018-09-17T02:53:33.319Z,70.56
2018-09-17T02:54:33.430Z,74.22
2018-09-17T02:55:33.661Z,70.80
2018-09-17T02:56:33.868Z,73.49
2018-09-17T02:57:34.098Z,73.49
2018-09-17T02:58:34.331Z,71.29
2018-09-17T02:59:34.552Z,69.82
2018-09-17T03:00:34.774Z,72.27
2018-09-17T03:01:35.002Z,73.97
2018-09-17T03:02:35.230Z,69.09
2018-09-17T03:03:35.455Z,72.51
2018-09-17T03:04:35.682Z,69.82
2018-09-17T03:05:35.904Z,73.73
2018-09-17T03:06:36.130Z,71.29
2018-09-17T03:07:36.364Z,71.29
2018-09-17T03:08:36.587Z,68.85
2018-09-17T03:09:36.812Z,74.22
2018-09-17T03:10:37.038Z,70.31
2018-09-17T03:11:37.267Z,76.17
2018-09-17T03:12:37.493Z,71.78
2018-09-17T03:13:37.720Z,74.71
2018-09-17T03:14:37.944Z,72.51
2018-09-17T03:15:38.172Z,70.80
2018-09-17T03:16:38.399Z,69.82
2018-09-17T03:17:38.627Z,72.51
2018-09-17T03:18:38.854Z,74.71
2018-09-17T03:19:39.087Z,73.24
2018-09-17T03:20:39.312Z,73.73
2018-09-17T03:21:39.538Z,75.68
2018-09-17T03:22:39.765Z,72.51
2018-09-17T03:23:39.992Z,69.82
2018-09-17T03:24:40.325Z,74.46
2018-09-17T03:25:40.451Z,69.58
2018-09-17T03:26:40.674Z,70.07
2018-09-17T03:27:40.908Z,72.75
2018-09-17T03:28:41.126Z,71.04
2018-09-17T03:29:41.355Z,72.51
2018-09-17T03:30:41.592Z,71.78
2018-09-17T03:31:41.807Z,73.73
2018-09-17T03:32:42.035Z,73.49
2018-09-17T03:33:42.261Z,75.44
2018-09-17T03:34:42.489Z,75.44
2018-09-17T03:35:42.715Z,74.46
2018-09-17T03:36:42.946Z,73.97
2018-09-17T03:37:43.170Z,76.17
2018-09-17T03:38:43.397Z,73.24
2018-09-17T03:39:43.625Z,72.51
2018-09-17T03:40:43.852Z,72.02
2018-09-17T03:41:44.079Z,75.44
2018-09-17T03:42:44.304Z,72.02
2018-09-17T03:43:44.567Z,76.66
2018-09-17T03:44:44.756Z,73.24
2018-09-17T03:45:44.984Z,74.71
2018-09-17T03:46:45.247Z,73.24
2018-09-17T03:47:45.438Z,70.80
2018-09-17T03:48:45.665Z,70.31
2018-09-17T03:49:45.891Z,72.02
2018-09-17T03:50:46.117Z,72.75
2018-09-17T03:51:46.342Z,75.68
2018-09-17T03:52:46.564Z,71.29
2018-09-17T03:53:46.825Z,73.00
2018-09-17T03:54:47.021Z,72.27
2018-09-17T03:55:47.245Z,72.75
2018-09-17T03:56:47.472Z,74.22
2018-09-17T03:57:47.692Z,72.75
2018-09-17T03:58:47.918Z,74.71
2018-09-17T03:59:48.142Z,73.73
2018-09-17T04:00:48.375Z,72.75
2018-09-17T04:01:48.600Z,70.31
2018-09-17T04:02:48.829Z,76.66
2018-09-17T04:03:49.061Z,73.49
2018-09-17T04:04:49.282Z,76.17
2018-09-17T04:05:49.508Z,71.29
2018-09-17T04:06:49.734Z,73.49
2018-09-17T04:07:49.962Z,71.78
2018-09-17T04:08:50.186Z,72.51
2018-09-17T04:09:50.411Z,71.53
2018-09-17T04:10:50.640Z,74.71
2018-09-17T04:11:50.868Z,71.78
2018-09-17T04:12:51.095Z,77.64
2018-09-17T04:13:51.319Z,74.22
2018-09-17T04:14:51.545Z,71.29
2018-09-17T04:15:51.773Z,72.02
2018-09-17T04:16:51.999Z,75.44
2018-09-17T04:17:52.226Z,76.42
2018-09-17T04:18:52.452Z,73.24
2018-09-17T04:19:52.677Z,72.02
2018-09-17T04:20:52.902Z,73.97
2018-09-17T04:21:53.128Z,76.17
2018-09-17T04:22:53.356Z,74.22
2018-09-17T04:23:53.582Z,73.24
2018-09-17T04:24:53.808Z,71.53
2018-09-17T04:25:54.034Z,79.35
2018-09-17T04:26:54.260Z,78.13
2018-09-17T04:27:54.485Z,75.44
2018-09-17T04:28:54.714Z,75.93
2018-09-17T04:29:54.939Z,77.64
2018-09-17T04:30:55.162Z,73.49
2018-09-17T04:31:55.387Z,74.46
2018-09-17T04:32:55.684Z,77.15
2018-09-17T04:33:55.840Z,73.97
2018-09-17T04:34:56.070Z,74.22
2018-09-17T04:35:56.289Z,72.02
2018-09-17T04:36:56.514Z,75.20
2018-09-17T04:37:56.740Z,76.17
2018-09-17T04:38:56.967Z,74.46
2018-09-17T04:39:57.241Z,73.73
2018-09-17T04:40:57.414Z,74.71
2018-09-17T04:41:57.645Z,79.59
2018-09-17T04:42:57.870Z,76.42
2018-09-17T04:43:58.097Z,75.68
2018-09-17T04:44:58.319Z,72.27
2018-09-17T04:45:58.544Z,74.22
2018-09-17T04:46:58.774Z,75.44
2018-09-17T04:47:58.996Z,74.95
2018-09-17T04:48:59.221Z,72.75
2018-09-17T04:49:59.449Z,74.95
2018-09-17T04:50:59.674Z,73.24
2018-09-17T04:51:59.898Z,74.22
2018-09-17T04:53:00.126Z,72.51
2018-09-17T04:54:00.352Z,75.68
2018-09-17T04:55:00.575Z,74.46
2018-09-17T04:56:00.854Z,73.00
2018-09-17T04:57:01.028Z,73.49
2018-09-17T04:58:01.255Z,75.68
2018-09-17T04:59:01.480Z,76.66
2018-09-17T05:00:01.708Z,75.44
2018-09-17T05:01:01.934Z,72.51
2018-09-17T05:02:02.160Z,73.97
2018-09-17T05:03:02.387Z,81.30
2018-09-17T05:04:02.616Z,72.51
2018-09-17T05:05:02.841Z,73.73
2018-09-17T05:06:03.067Z,73.24
2018-09-17T05:07:03.296Z,70.31
2018-09-17T05:08:03.518Z,74.71
2018-09-17T05:09:03.746Z,72.75
2018-09-17T05:10:03.971Z,71.04
2018-09-17T05:11:04.198Z,68.85
2018-09-17T05:12:04.426Z,69.34
2018-09-17T05:13:04.670Z,73.49
2018-09-17T05:14:04.875Z,72.51
2018-09-17T05:15:05.102Z,71.29
2018-09-17T05:16:05.329Z,69.34
2018-09-17T05:17:05.553Z,71.29
2018-09-17T05:18:05.783Z,70.80
2018-09-17T05:19:06.006Z,70.31
2018-09-17T05:20:06.232Z,71.78
2018-09-17T05:21:06.464Z,71.78
2018-09-17T05:22:06.683Z,73.73
2018-09-17T05:23:06.907Z,72.51
2018-09-17T05:24:07.134Z,74.46
2018-09-17T05:25:07.359Z,72.02
2018-09-17T05:26:07.585Z,72.27
2018-09-17T05:27:07.811Z,70.56
2018-09-17T05:28:08.036Z,72.27
2018-09-17T05:29:08.266Z,73.00
2018-09-17T05:30:08.494Z,74.22
2018-09-17T05:31:08.719Z,75.68
2018-09-17T05:32:08.946Z,73.49
2018-09-17T05:33:09.173Z,74.71
2018-09-17T05:34:09.402Z,74.46
2018-09-17T05:35:09.669Z,73.73
2018-09-17T05:36:09.851Z,71.78
2018-09-17T05:37:10.073Z,74.46
2018-09-17T05:38:10.301Z,73.49
2018-09-17T05:39:10.529Z,74.46
2018-09-17T05:40:10.756Z,71.78
2018-09-17T05:41:10.981Z,73.73
2018-09-17T05:42:11.208Z,72.51
2018-09-17T05:43:11.435Z,75.68
2018-09-17T05:44:11.663Z,73.00
2018-09-17T05:45:11.891Z,72.27
2018-09-17T05:46:12.118Z,73.24
2018-09-17T05:47:12.341Z,68.60
2018-09-17T05:48:12.569Z,71.53
2018-09-17T05:49:12.797Z,70.31
2018-09-17T05:50:13.026Z,71.04
2018-09-17T05:51:13.256Z,71.04
2018-09-17T05:52:13.480Z,72.75
2018-09-17T05:53:13.707Z,70.80
2018-09-17T05:54:13.935Z,69.82
2018-09-17T05:55:14.163Z,73.97
2018-09-17T05:56:14.388Z,75.93
2018-09-17T05:57:14.621Z,71.53
2018-09-17T05:58:14.854Z,76.66
2018-09-17T05:59:15.083Z,71.78
2018-09-17T06:00:15.319Z,69.34
2018-09-17T06:01:15.541Z,73.00
2018-09-17T06:02:15.767Z,71.29
2018-09-17T06:03:15.998Z,69.58
2018-09-17T06:04:16.224Z,69.09
2018-09-17T06:05:16.452Z,70.56
2018-09-17T06:06:16.681Z,73.73
2018-09-17T06:07:16.909Z,73.49
2018-09-17T06:08:17.137Z,69.58
2018-09-17T06:09:17.369Z,71.53
2018-09-17T06:10:17.597Z,75.93
2018-09-17T06:11:17.831Z,70.07
2018-09-17T06:12:18.066Z,76.42
2018-09-17T06:13:18.287Z,71.04
2018-09-17T06:14:18.518Z,69.58
2018-09-17T06:15:18.747Z,70.31
2018-09-17T06:16:18.981Z,73.49
2018-09-17T06:17:19.270Z,69.82
2018-09-17T06:18:19.435Z,69.58
2018-09-17T06:19:19.667Z,71.53
2018-09-17T06:20:19.896Z,69.82
2018-09-17T06:21:20.128Z,70.07
2018-09-17T06:22:20.359Z,70.31
2018-09-17T06:23:20.638Z,70.07
2018-09-17T06:24:20.818Z,69.58
2018-09-17T06:25:21.049Z,71.29
2018-09-17T06:26:21.285Z,71.29
2018-09-17T06:27:21.512Z,71.78
2018-09-17T06:28:21.742Z,74.46
2018-09-17T06:29:21.972Z,70.56
2018-09-17T06:30:22.203Z,71.53
2018-09-17T06:31:22.434Z,68.85
2018-09-17T06:32:22.663Z,69.09
2018-09-17T06:33:22.893Z,68.36
2018-09-17T06:34:23.123Z,71.78
2018-09-17T06:35:23.352Z,69.58
2018-09-17T06:36:23.679Z,66.65
2018-09-17T06:37:23.815Z,68.12
2018-09-17T06:38:24.045Z,69.34
2018-09-17T06:39:24.276Z,69.34
2018-09-17T06:40:24.508Z,70.07
2018-09-17T06:41:24.737Z,73.00
2018-09-17T06:42:24.965Z,68.12
2018-09-17T06:43:25.196Z,71.29
2018-09-17T06:44:25.479Z,69.34
2018-09-17T06:45:25.658Z,70.80
2018-09-17T06:46:25.888Z,68.60
2018-09-17T06:47:26.120Z,68.85
2018-09-17T06:48:26.352Z,89.11
2018-09-17T06:49:26.587Z,88.87
2018-09-17T06:50:26.815Z,69.58
2018-09-17T06:51:27.085Z,72.75
2018-09-17T06:52:27.273Z,69.34
2018-09-17T06:53:27.503Z,71.29
2018-09-17T06:54:27.733Z,71.53
2018-09-17T06:55:27.965Z,72.27
2018-09-17T06:56:28.194Z,75.93
2018-09-17T06:57:28.423Z,73.00
2018-09-17T06:58:28.651Z,72.27
2018-09-17T06:59:28.881Z,71.04
2018-09-17T07:00:29.109Z,69.09
2018-09-17T07:01:29.340Z,71.04
2018-09-17T07:02:29.570Z,68.36
2018-09-17T07:03:29.797Z,69.58
2018-09-17T07:04:30.030Z,75.44
2018-09-17T07:05:30.263Z,69.34
2018-09-17T07:06:30.504Z,70.31
2018-09-17T07:07:30.720Z,69.58
2018-09-17T07:08:30.947Z,68.85
2018-09-17T07:09:31.179Z,68.12
2018-09-17T07:10:31.413Z,69.09
2018-09-17T07:11:31.640Z,70.07
2018-09-17T07:12:31.870Z,67.14
2018-09-17T07:13:32.099Z,64.94
2018-09-17T07:14:32.328Z,65.92
2018-09-17T07:15:32.560Z,68.36
2018-09-17T07:16:32.787Z,68.12
2018-09-17T07:17:33.018Z,69.58
2018-09-17T07:18:33.246Z,66.89
2018-09-17T07:19:33.477Z,67.63
2018-09-17T07:20:33.716Z,66.41
2018-09-17T07:21:33.934Z,67.38
2018-09-17T07:22:34.162Z,67.63
2018-09-17T07:23:34.396Z,68.85
2018-09-17T07:24:34.634Z,67.14
2018-09-17T07:25:34.851Z,69.09
2018-09-17T07:26:35.079Z,68.36
2018-09-17T07:27:35.307Z,66.89
2018-09-17T07:28:35.543Z,69.82
2018-09-17T07:29:35.770Z,68.36
2018-09-17T07:30:36.007Z,69.09
2018-09-17T07:31:36.229Z,70.56
2018-09-17T07:32:36.504Z,70.56
2018-09-17T07:33:36.689Z,68.60
2018-09-17T07:34:36.917Z,69.58
2018-09-17T07:35:37.144Z,68.36
2018-09-17T07:36:37.392Z,70.07
2018-09-17T07:37:37.606Z,71.53
2018-09-17T07:38:37.837Z,72.51
2018-09-17T07:39:38.067Z,73.73
2018-09-17T07:40:38.311Z,68.85
2018-09-17T07:41:38.526Z,69.09
2018-09-17T07:42:38.771Z,70.07
2018-09-17T07:43:38.981Z,70.31
2018-09-17T07:44:39.212Z,73.49
2018-09-17T07:45:39.440Z,69.82
2018-09-17T07:46:39.674Z,71.29
2018-09-17T07:47:39.900Z,70.31
2018-09-17T07:48:40.129Z,70.31
2018-09-17T07:49:40.356Z,75.68
2018-09-17T07:50:40.585Z,72.51
2018-09-17T07:51:40.814Z,71.78
2018-09-17T07:52:41.045Z,69.09
2018-09-17T07:53:41.276Z,72.02
2018-09-17T07:54:41.505Z,68.85
2018-09-17T07:55:41.734Z,67.38
2018-09-17T07:56:41.967Z,64.45
2018-09-17T07:57:42.192Z,67.38
2018-09-17T07:58:42.427Z,67.87
2018-09-17T07:59:42.650Z,68.60
2018-09-17T08:00:42.881Z,71.78
2018-09-17T08:01:43.123Z,71.04
2018-09-17T08:02:43.338Z,67.14
2018-09-17T08:03:43.563Z,68.85
2018-09-17T08:04:43.797Z,69.34
2018-09-17T08:05:44.077Z,68.60
2018-09-17T08:06:44.252Z,68.60
2018-09-17T08:07:44.479Z,65.43
2018-09-17T08:08:44.710Z,68.60
2018-09-17T08:09:44.941Z,67.14
2018-09-17T08:10:45.173Z,67.38
2018-09-17T08:11:45.398Z,69.82
2018-09-17T08:12:45.627Z,69.09
2018-09-17T08:13:45.857Z,70.80
2018-09-17T08:14:46.086Z,70.56
2018-09-17T08:15:46.317Z,70.31
2018-09-17T08:16:46.548Z,71.29
2018-09-17T08:17:46.782Z,70.56
2018-09-17T08:18:47.010Z,69.82
2018-09-17T08:19:47.295Z,73.00
2018-09-17T08:20:47.475Z,70.31
2018-09-17T08:21:47.700Z,69.34
2018-09-17T08:22:47.933Z,72.75
2018-09-17T08:23:48.159Z,68.36
2018-09-17T08:24:48.388Z,68.12
2018-09-17T08:25:48.616Z,70.31
2018-09-17T08:26:48.847Z,69.34
2018-09-17T08:27:49.079Z,70.80
2018-09-17T08:28:49.308Z,67.38
2018-09-17T08:29:49.542Z,72.51
2018-09-17T08:30:49.771Z,73.00
2018-09-17T08:31:50.002Z,70.31
2018-09-17T08:32:50.231Z,70.07
2018-09-17T08:33:50.461Z,72.27
2018-09-17T08:34:50.692Z,68.36
2018-09-17T08:35:50.920Z,68.60
2018-09-17T08:36:51.154Z,67.14
2018-09-17T08:37:51.382Z,71.29
2018-09-17T08:38:51.610Z,69.58
2018-09-17T08:39:51.840Z,71.29
2018-09-17T08:40:52.076Z,70.56
2018-09-17T08:41:52.305Z,71.04
2018-09-17T08:42:52.535Z,67.14
2018-09-17T08:43:52.770Z,67.87
2018-09-17T08:44:52.996Z,69.58
2018-09-17T08:45:53.228Z,68.36
2018-09-17T08:46:53.461Z,69.58
2018-09-17T08:47:53.689Z,72.51
2018-09-17T08:48:53.920Z,66.89
2018-09-17T08:49:54.149Z,66.41
2018-09-17T08:50:54.380Z,70.56
2018-09-17T08:51:54.609Z,69.58
2018-09-17T08:52:54.904Z,69.58
2018-09-17T08:53:55.073Z,69.34
2018-09-17T08:54:55.306Z,73.49
2018-09-17T08:55:55.538Z,70.31
2018-09-17T08:56:55.771Z,68.60
2018-09-17T08:57:56.003Z,71.04
2018-09-17T08:58:56.235Z,72.02
2018-09-17T08:59:56.465Z,71.29
2018-09-17T09:00:56.699Z,71.78
2018-09-17T09:01:56.923Z,66.41
2018-09-17T09:02:57.157Z,72.51
2018-09-17T09:03:57.409Z,70.31
2018-09-17T09:04:57.674Z,68.60
2018-09-17T09:05:57.848Z,69.58
2018-09-17T09:06:58.083Z,69.34
2018-09-17T09:07:58.313Z,67.38
2018-09-17T09:08:58.547Z,68.36
2018-09-17T09:09:58.777Z,66.41
2018-09-17T09:10:59.006Z,64.70
2018-09-17T09:11:59.237Z,71.04
2018-09-17T09:12:59.469Z,68.60
2018-09-17T09:13:59.701Z,68.36
2018-09-17T09:14:59.932Z,69.34
2018-09-17T09:16:00.163Z,69.82
2018-09-17T09:17:00.393Z,69.34
2018-09-17T09:18:00.627Z,70.07
2018-09-17T09:19:00.858Z,69.34
2018-09-17T09:20:01.095Z,66.41
2018-09-17T09:21:01.323Z,68.60
2018-09-17T09:22:01.554Z,66.41
2018-09-17T09:23:01.788Z,67.14
2018-09-17T09:24:02.017Z,70.80
2018-09-17T09:25:02.249Z,69.34
2018-09-17T09:26:02.479Z,69.34
2018-09-17T09:27:02.725Z,68.85
2018-09-17T09:28:02.980Z,68.36
2018-09-17T09:29:03.185Z,70.07
2018-09-17T09:30:03.409Z,66.41
2018-09-17T09:31:03.630Z,67.14
2018-09-17T09:32:03.861Z,70.31
2018-09-17T09:33:04.090Z,66.41
2018-09-17T09:34:04.321Z,71.53
2018-09-17T09:35:04.568Z,69.34
2018-09-17T09:36:04.798Z,68.85
2018-09-17T09:37:05.029Z,65.67
2018-09-17T09:38:05.262Z,65.19
2018-09-17T09:39:05.497Z,69.09
2018-09-17T09:40:05.729Z,69.34
2018-09-17T09:41:05.959Z,65.67
2018-09-17T09:42:06.193Z,71.29
2018-09-17T09:43:06.426Z,67.63
2018-09-17T09:44:06.657Z,66.65
2018-09-17T09:45:06.892Z,67.87
2018-09-17T09:46:07.123Z,77.15
2018-09-17T09:47:07.356Z,64.45
2018-09-17T09:48:07.587Z,66.16
2018-09-17T09:49:07.820Z,66.41
2018-09-17T09:50:08.050Z,65.43
2018-09-17T09:51:08.303Z,64.94
2018-09-17T09:52:08.537Z,65.92
2018-09-17T09:53:08.768Z,70.07
2018-09-17T09:54:09.000Z,67.38
2018-09-17T09:55:09.230Z,65.43
2018-09-17T09:56:09.461Z,65.43
2018-09-17T09:57:09.695Z,66.89
2018-09-17T09:58:09.929Z,71.29
2018-09-17T09:59:10.160Z,67.14
2018-09-17T10:00:10.394Z,68.12
2018-09-17T10:01:10.624Z,68.60
2018-09-17T10:02:10.857Z,68.12
2018-09-17T10:03:11.091Z,76.66
2018-09-17T10:04:11.322Z,64.94
2018-09-17T10:05:11.553Z,66.16
2018-09-17T10:06:11.790Z,68.36
2018-09-17T10:07:12.021Z,69.82
2018-09-17T10:08:12.251Z,66.41
2018-09-17T10:09:12.489Z,70.31
2018-09-17T10:10:12.717Z,71.29
2018-09-17T10:11:12.951Z,69.58
2018-09-17T10:12:13.185Z,71.04
2018-09-17T10:13:13.421Z,72.27
2018-09-17T10:14:13.652Z,68.85
2018-09-17T10:15:13.880Z,69.82
2018-09-17T10:16:14.115Z,70.31
2018-09-17T10:17:14.350Z,71.29
2018-09-17T10:18:14.583Z,69.82
2018-09-17T10:19:14.901Z,71.53
2018-09-17T10:20:15.050Z,71.29
2018-09-17T10:21:15.285Z,68.60
2018-09-17T10:22:15.520Z,67.38
2018-09-17T10:23:15.754Z,65.43
2018-09-17T10:24:16.010Z,67.87
2018-09-17T10:25:16.225Z,70.07
2018-09-17T10:26:16.455Z,68.12
2018-09-17T10:27:16.687Z,67.87
2018-09-17T10:28:16.922Z,69.58
2018-09-17T10:29:17.155Z,69.58
2018-09-17T10:30:17.388Z,71.04
2018-09-17T10:31:17.623Z,69.09
2018-09-17T10:32:17.856Z,68.85
2018-09-17T10:33:18.089Z,68.36
2018-09-17T10:34:18.323Z,69.58
2018-09-17T10:35:18.556Z,68.12
2018-09-17T10:36:18.801Z,68.60
2018-09-17T10:37:19.020Z,66.65
2018-09-17T10:38:19.258Z,65.92
2018-09-17T10:39:19.490Z,66.65
2018-09-17T10:40:19.724Z,65.67
2018-09-17T10:41:19.957Z,68.12
2018-09-17T10:42:20.194Z,65.43
2018-09-17T10:43:20.426Z,62.99
2018-09-17T10:44:20.660Z,64.21
2018-09-17T10:45:20.893Z,65.19
2018-09-17T10:46:21.125Z,68.36
2018-09-17T10:47:21.368Z,63.96
2018-09-17T10:48:21.597Z,62.74
2018-09-17T10:49:21.829Z,62.99
2018-09-17T10:50:22.064Z,62.74
2018-09-17T10:51:22.300Z,63.96
2018-09-17T10:52:22.531Z,64.21
2018-09-17T10:53:22.766Z,64.70
2018-09-17T10:54:23.003Z,66.41
2018-09-17T10:55:23.233Z,66.65
2018-09-17T10:56:23.469Z,69.34
2018-09-17T10:57:23.704Z,64.94
2018-09-17T10:58:23.936Z,62.74
2018-09-17T10:59:24.168Z,63.96
2018-09-17T11:00:24.403Z,65.92
2018-09-17T11:01:24.635Z,68.85
2018-09-17T11:02:24.869Z,66.65
2018-09-17T11:03:25.105Z,63.96
2018-09-17T11:04:25.342Z,67.14
2018-09-17T11:05:25.574Z,64.21
2018-09-17T11:06:25.812Z,68.12
2018-09-17T11:07:26.061Z,67.14
2018-09-17T11:08:26.281Z,63.72
2018-09-17T11:09:26.515Z,67.87
2018-09-17T11:10:26.753Z,66.16
2018-09-17T11:11:26.984Z,63.48
2018-09-17T11:12:27.214Z,64.21
2018-09-17T11:13:27.451Z,68.85
2018-09-17T11:14:27.684Z,73.00
2018-09-17T11:15:27.919Z,64.70
2018-09-17T11:16:28.154Z,64.21
2018-09-17T11:17:28.443Z,63.96
2018-09-17T11:18:28.624Z,65.19
2018-09-17T11:19:28.855Z,63.72
2018-09-17T11:20:29.091Z,61.04
2018-09-17T11:21:29.327Z,62.01
2018-09-17T11:22:29.559Z,64.70
2018-09-17T11:23:29.794Z,60.55
2018-09-17T11:24:30.027Z,60.55
2018-09-17T11:25:30.262Z,63.72
2018-09-17T11:26:30.503Z,61.52
2018-09-17T11:27:30.727Z,60.55
2018-09-17T11:28:30.963Z,61.04
2018-09-17T11:29:31.196Z,59.57
2018-09-17T11:30:31.435Z,62.99
2018-09-17T11:31:31.715Z,64.45
2018-09-17T11:32:31.904Z,63.48
2018-09-17T11:33:32.137Z,63.48
2018-09-17T11:34:32.370Z,63.72
2018-09-17T11:35:32.606Z,62.01
2018-09-17T11:36:32.839Z,63.72
2018-09-17T11:37:33.072Z,65.19
2018-09-17T11:38:33.307Z,63.96
2018-09-17T11:39:33.542Z,60.30
2018-09-17T11:40:33.777Z,62.50
2018-09-17T11:41:34.012Z,63.96
2018-09-17T11:42:34.247Z,60.79
2018-09-17T11:43:34.480Z,62.50
2018-09-17T11:44:34.717Z,64.21
2018-09-17T11:45:34.950Z,65.92
2018-09-17T11:46:35.186Z,66.41
2018-09-17T11:47:35.419Z,63.23
2018-09-17T11:48:35.656Z,73.49
2018-09-17T11:49:35.888Z,61.77
2018-09-17T11:50:36.121Z,62.99
2018-09-17T11:51:36.354Z,72.51
2018-09-17T11:52:36.592Z,63.72
2018-09-17T11:53:36.833Z,62.99
2018-09-17T11:54:37.062Z,64.94
2018-09-17T11:55:37.291Z,64.21
2018-09-17T11:56:37.529Z,61.77
2018-09-17T11:57:37.765Z,63.96
2018-09-17T11:58:37.997Z,65.43
2018-09-17T11:59:38.232Z,63.48
2018-09-17T12:00:38.466Z,62.74
2018-09-17T12:01:38.725Z,61.04
2018-09-17T12:02:38.934Z,64.70
2018-09-17T12:03:39.173Z,63.72
2018-09-17T12:04:39.402Z,61.28
2018-09-17T12:05:39.639Z,64.70
2018-09-17T12:06:39.873Z,64.21
2018-09-17T12:07:40.115Z,63.48
2018-09-17T12:08:40.346Z,63.48
2018-09-17T12:09:40.582Z,76.17
2018-09-17T12:10:40.815Z,71.29
2018-09-17T12:11:41.051Z,78.37
2018-09-17T12:12:41.287Z,69.82
2018-09-17T12:13:41.526Z,63.48
2018-09-17T12:14:41.755Z,61.77
2018-09-17T12:15:41.995Z,62.01
2018-09-17T12:16:42.230Z,63.96
2018-09-17T12:17:42.462Z,63.72
2018-09-17T12:18:42.697Z,62.99
2018-09-17T12:19:42.933Z,66.41
2018-09-17T12:20:43.163Z,63.23
2018-09-17T12:21:43.401Z,62.50
2018-09-17T12:22:43.647Z,65.67
2018-09-17T12:23:43.860Z,63.96
2018-09-17T12:24:44.096Z,67.38
2018-09-17T12:25:44.332Z,63.96
2018-09-17T12:26:44.577Z,61.04
2018-09-17T12:27:44.799Z,64.70
2018-09-17T12:28:45.038Z,64.45
2018-09-17T12:29:45.274Z,65.43
2018-09-17T12:30:45.511Z,62.99
2018-09-17T12:31:45.740Z,62.01
2018-09-17T12:32:45.974Z,62.50
2018-09-17T12:33:46.285Z,64.94
2018-09-17T12:34:46.446Z,65.43
2018-09-17T12:35:46.680Z,61.52
2018-09-17T12:36:46.914Z,63.72
2018-09-17T12:37:47.149Z,62.99
2018-09-17T12:38:47.386Z,64.45
2018-09-17T12:39:47.624Z,62.50
2018-09-17T12:40:47.852Z,62.50
2018-09-17T12:41:48.090Z,62.50
2018-09-17T12:42:48.326Z,64.21
2018-09-17T12:43:48.560Z,63.48
2018-09-17T12:44:48.799Z,63.96
2018-09-17T12:45:49.040Z,63.23
2018-09-17T12:46:49.270Z,63.48
2018-09-17T12:47:49.508Z,63.48
2018-09-17T12:48:49.745Z,66.41
2018-09-17T12:49:49.990Z,66.41
2018-09-17T12:50:50.238Z,66.16
2018-09-17T12:51:50.458Z,64.94
2018-09-17T12:52:50.700Z,67.63
2018-09-17T12:53:50.920Z,65.43
2018-09-17T12:54:51.158Z,66.16
2018-09-17T12:55:51.392Z,64.70